createdAt,value
2019-01-03T00:01:45.035Z,4.33
2019-01-03T00:04:40.960Z,7.80
2019-01-03T00:07:43.912Z,7.50
2019-01-03T00:10:36.854Z,7.37
2019-01-03T00:13:24.761Z,4.50
2019-01-03T00:16:14.639Z,6.87
2019-01-03T00:19:10.392Z,8.40
2019-01-03T00:22:06.064Z,5.07
2019-01-03T00:25:08.268Z,3.77
2019-01-03T00:28:07.381Z,2.30
2019-01-03T00:30:57.561Z,4.27
2019-01-03T00:34:05.888Z,4.73
2019-01-03T00:36:54.711Z,3.43
2019-01-03T00:39:44.567Z,3.83
2019-01-03T00:42:27.857Z,3.23
2019-01-03T00:45:08.722Z,4.60
2019-01-03T00:48:10.473Z,6.50
2019-01-03T00:51:03.435Z,5.83
2019-01-03T00:54:08.272Z,6.77
2019-01-03T00:56:56.767Z,6.17
2019-01-03T00:59:45.275Z,4.80
2019-01-03T01:02:35.136Z,3.10
2019-01-03T01:05:34.257Z,5.47
2019-01-03T01:08:23.051Z,4.03
2019-01-03T01:11:28.244Z,3.60
2019-01-03T01:14:18.179Z,7.77
2019-01-03T01:17:06.694Z,4.87
2019-01-03T01:19:55.537Z,2.73
2019-01-03T01:22:45.515Z,3.30
2019-01-03T01:25:38.119Z,4.10
2019-01-03T01:28:26.531Z,8.37
2019-01-03T01:31:16.411Z,3.23
2019-01-03T01:34:09.318Z,4.30
2019-01-03T01:37:05.293Z,4.67
2019-01-03T01:40:04.379Z,3.57
2019-01-03T01:42:53.247Z,6.30
2019-01-03T01:45:42.128Z,4.63
2019-01-03T01:48:30.571Z,2.80
2019-01-03T01:51:19.044Z,3.60
2019-01-03T01:54:19.722Z,5.80
2019-01-03T01:57:09.591Z,4.43
2019-01-03T01:59:57.910Z,5.67
2019-01-03T02:02:47.742Z,8.13
2019-01-03T02:05:49.610Z,5.43
2019-01-03T02:08:38.554Z,5.03
2019-01-03T02:11:34.792Z,6.40
2019-01-03T02:14:27.437Z,6.73
2019-01-03T02:17:23.355Z,9.40
2019-01-03T02:20:10.031Z,5.70
2019-01-03T02:22:59.864Z,7.37
2019-01-03T02:25:59.138Z,9.47
2019-01-03T02:28:47.513Z,4.63
2019-01-03T02:31:40.364Z,4.97
2019-01-03T02:34:30.190Z,4.77
2019-01-03T02:37:35.277Z,4.90
2019-01-03T02:40:31.516Z,7.13
2019-01-03T02:43:39.756Z,7.83
2019-01-03T02:46:35.418Z,7.03
2019-01-03T02:49:23.914Z,8.37
2019-01-03T02:52:22.861Z,6.03
2019-01-03T02:55:18.201Z,7.03
2019-01-03T02:58:11.031Z,10.30
2019-01-03T03:01:05.432Z,5.87
2019-01-03T03:03:54.068Z,5.70
2019-01-03T03:06:42.977Z,8.60
2019-01-03T03:09:32.793Z,4.03
2019-01-03T03:12:25.664Z,7.53
2019-01-03T03:15:14.321Z,4.53
2019-01-03T03:18:04.188Z,3.03
2019-01-03T03:21:06.082Z,5.93
2019-01-03T03:23:55.921Z,8.23
2019-01-03T03:27:00.997Z,6.97
2019-01-03T03:30:00.064Z,7.40
2019-01-03T03:32:48.475Z,3.93
2019-01-03T03:35:37.123Z,7.27
2019-01-03T03:38:42.413Z,7.73
2019-01-03T03:41:29.220Z,4.83
2019-01-03T03:44:13.981Z,5.77
2019-01-03T03:47:22.489Z,11.70
2019-01-03T03:50:18.542Z,6.43
2019-01-03T03:53:11.203Z,4.47
2019-01-03T03:56:19.266Z,5.07
2019-01-03T03:59:26.688Z,6.10
2019-01-03T04:02:15.132Z,7.57
2019-01-03T04:05:13.955Z,6.90
2019-01-03T04:08:09.645Z,6.87
2019-01-03T04:11:08.632Z,6.93
2019-01-03T04:13:58.473Z,4.40
2019-01-03T04:16:43.265Z,4.47
2019-01-03T04:19:51.482Z,6.03
2019-01-03T04:22:41.353Z,5.00
2019-01-03T04:25:40.321Z,8.10
2019-01-03T04:28:48.674Z,5.40
2019-01-03T04:31:53.984Z,6.80
2019-01-03T04:34:48.696Z,3.80
2019-01-03T04:37:37.407Z,4.90
2019-01-03T04:40:36.534Z,5.60
2019-01-03T04:43:38.425Z,7.70
2019-01-03T04:46:28.301Z,6.90
2019-01-03T04:49:21.080Z,5.20
2019-01-03T04:52:13.984Z,6.77
2019-01-03T04:55:03.081Z,5.57
2019-01-03T04:57:58.949Z,5.80
2019-01-03T05:00:54.941Z,10.83
2019-01-03T05:03:43.719Z,7.13
2019-01-03T05:06:43.807Z,6.83
2019-01-03T05:09:33.654Z,12.50
2019-01-03T05:12:29.315Z,7.37
2019-01-03T05:15:10.058Z,7.70
2019-01-03T05:17:58.538Z,9.10
2019-01-03T05:20:46.563Z,9.10
2019-01-03T05:23:36.498Z,7.63
2019-01-03T05:26:32.183Z,8.33
2019-01-03T05:29:37.293Z,8.77
2019-01-03T05:32:36.107Z,11.23
2019-01-03T05:35:42.022Z,14.83
2019-01-03T05:38:41.835Z,16.83
2019-01-03T05:41:43.867Z,9.77
2019-01-03T05:44:29.605Z,14.07
2019-01-03T05:47:28.487Z,15.07
2019-01-03T05:50:18.323Z,10.10
2019-01-03T05:53:06.946Z,14.83
2019-01-03T05:55:46.177Z,13.40
2019-01-03T05:58:54.657Z,13.00
2019-01-03T06:01:47.332Z,14.00
2019-01-03T06:04:35.777Z,12.57
2019-01-03T06:07:24.622Z,11.47
2019-01-03T06:10:23.747Z,13.03
2019-01-03T06:13:12.537Z,12.93
2019-01-03T06:16:08.910Z,10.30
2019-01-03T06:18:57.297Z,13.63
2019-01-03T06:21:53.136Z,8.27
2019-01-03T06:24:42.966Z,14.40
2019-01-03T06:27:31.345Z,10.20
2019-01-03T06:30:21.195Z,9.00
2019-01-03T06:33:07.284Z,12.97
2019-01-03T06:36:03.175Z,14.80
2019-01-03T06:38:51.965Z,10.23
2019-01-03T06:41:43.170Z,14.10
2019-01-03T06:44:29.708Z,9.90
2019-01-03T06:47:18.520Z,8.63
2019-01-03T06:50:07.367Z,15.03
2019-01-03T06:52:57.222Z,14.10
2019-01-03T06:55:56.320Z,10.50
2019-01-03T06:58:46.104Z,14.60
2019-01-03T07:01:33.806Z,11.60
2019-01-03T07:04:26.427Z,11.40
2019-01-03T07:07:18.706Z,9.93
2019-01-03T07:10:08.389Z,10.00
2019-01-03T07:13:11.373Z,22.17
2019-01-03T07:16:01.288Z,14.13
2019-01-03T07:19:06.515Z,11.23
2019-01-03T07:21:55.091Z,13.80
2019-01-03T07:24:51.209Z,12.00
2019-01-03T07:27:48.173Z,13.80
2019-01-03T07:30:56.118Z,19.17
2019-01-03T07:33:44.584Z,11.97
2019-01-03T07:36:33.400Z,12.87
2019-01-03T07:39:24.971Z,13.97
2019-01-03T07:42:18.068Z,15.70
2019-01-03T07:45:06.523Z,13.43
2019-01-03T07:48:00.889Z,14.30
2019-01-03T07:50:59.762Z,17.20
2019-01-03T07:53:48.597Z,19.23
2019-01-03T07:56:41.549Z,17.50
2019-01-03T07:59:31.480Z,19.33
2019-01-03T08:02:27.439Z,14.90
2019-01-03T08:05:16.145Z,17.43
2019-01-03T08:08:04.830Z,18.00
2019-01-03T08:11:03.882Z,18.37
2019-01-03T08:13:52.651Z,16.20
2019-01-03T08:16:51.650Z,16.37
2019-01-03T08:19:50.713Z,15.30
2019-01-03T08:22:40.561Z,22.57
2019-01-03T08:25:30.459Z,23.10
2019-01-03T08:28:35.550Z,15.73
2019-01-03T08:31:31.412Z,15.13
2019-01-03T08:34:21.494Z,9.10
2019-01-03T08:37:10.522Z,14.23
2019-01-03T08:39:59.268Z,11.70
2019-01-03T08:42:47.979Z,14.83
2019-01-03T08:45:50.377Z,13.17
2019-01-03T08:48:39.299Z,15.60
2019-01-03T08:51:28.282Z,12.90
2019-01-03T08:54:16.999Z,16.03
2019-01-03T08:57:08.152Z,14.73
2019-01-03T08:59:56.533Z,14.37
2019-01-03T09:02:47.436Z,14.23
2019-01-03T09:05:52.436Z,13.93
2019-01-03T09:08:41.138Z,17.53
2019-01-03T09:11:29.960Z,12.93
2019-01-03T09:14:32.132Z,8.97
2019-01-03T09:17:17.280Z,6.70
2019-01-03T09:20:05.794Z,7.13
2019-01-03T09:22:54.220Z,10.57
2019-01-03T09:25:42.959Z,11.20
2019-01-03T09:28:32.848Z,9.10
2019-01-03T09:31:22.660Z,12.20
2019-01-03T09:34:11.515Z,10.80
2019-01-03T09:36:51.966Z,12.00
2019-01-03T09:39:50.993Z,12.23
2019-01-03T09:42:55.987Z,10.67
2019-01-03T09:45:26.895Z,37.63
2019-01-03T09:47:57.865Z,14.20
2019-01-03T09:50:28.841Z,8.77
2019-01-03T09:52:59.792Z,10.07
2019-01-03T09:55:30.702Z,15.33
2019-01-03T09:58:01.683Z,11.37
2019-01-03T10:00:32.671Z,11.60
2019-01-03T10:03:03.662Z,7.47
2019-01-03T10:05:34.575Z,8.13
2019-01-03T10:08:05.523Z,11.70
2019-01-03T10:10:36.458Z,9.30
2019-01-03T10:13:07.388Z,10.17
2019-01-03T10:15:38.362Z,10.63
2019-01-03T10:18:09.353Z,10.43
2019-01-03T10:20:40.375Z,15.80
2019-01-03T10:23:11.317Z,15.67
2019-01-03T10:25:42.258Z,7.20
2019-01-03T10:28:13.205Z,11.13
2019-01-03T10:30:44.203Z,16.00
2019-01-03T10:33:15.154Z,12.83
2019-01-03T10:35:46.090Z,9.63
2019-01-03T10:38:20.970Z,9.70
2019-01-03T10:40:49.717Z,9.63
2019-01-03T10:43:20.635Z,8.83
2019-01-03T10:45:52.647Z,8.07
2019-01-03T10:48:23.678Z,11.17
2019-01-03T10:50:54.593Z,8.53
2019-01-03T10:53:25.589Z,9.13
2019-01-03T10:55:56.590Z,7.90
2019-01-03T10:58:27.559Z,9.83
2019-01-03T11:00:58.698Z,9.03
2019-01-03T11:03:29.622Z,10.53
2019-01-03T11:06:00.558Z,10.83
2019-01-03T11:08:31.575Z,8.40
2019-01-03T11:11:02.561Z,9.90
2019-01-03T11:13:33.492Z,14.97
2019-01-03T11:16:04.419Z,10.97
2019-01-03T11:18:35.421Z,6.17
2019-01-03T11:21:06.454Z,7.60
2019-01-03T11:23:37.559Z,10.20
2019-01-03T11:26:08.574Z,6.97
2019-01-03T11:28:39.515Z,9.47
2019-01-03T11:31:10.458Z,5.83
2019-01-03T11:33:41.485Z,9.73
2019-01-03T11:36:12.466Z,9.77
2019-01-03T11:38:43.385Z,16.53
2019-01-03T11:41:15.154Z,8.97
2019-01-03T11:43:46.571Z,11.43
2019-01-03T11:46:17.585Z,9.60
2019-01-03T11:48:48.801Z,8.97
2019-01-03T11:51:19.722Z,34.27
2019-01-03T11:53:50.648Z,7.57
2019-01-03T11:56:21.592Z,13.17
2019-01-03T11:58:52.528Z,11.57
2019-01-03T12:01:23.464Z,10.13
2019-01-03T12:03:54.470Z,7.03
2019-01-03T12:06:25.372Z,10.27
2019-01-03T12:08:56.329Z,9.87
2019-01-03T12:11:27.256Z,10.67
2019-01-03T12:13:58.183Z,11.93
2019-01-03T12:16:29.088Z,11.43
2019-01-03T12:19:00.009Z,10.90
2019-01-03T12:21:30.930Z,13.30
2019-01-03T12:24:01.848Z,9.37
2019-01-03T12:26:32.771Z,11.87
2019-01-03T12:29:03.688Z,13.87
2019-01-03T12:31:34.621Z,6.97
2019-01-03T12:34:05.562Z,10.33
2019-01-03T12:36:36.527Z,11.07
2019-01-03T12:39:07.957Z,9.43
2019-01-03T12:41:38.949Z,14.70
2019-01-03T12:44:09.887Z,6.60
2019-01-03T12:46:40.806Z,11.83
2019-01-03T12:49:11.741Z,8.67
2019-01-03T12:51:42.721Z,8.60
2019-01-03T12:54:13.748Z,11.00
2019-01-03T12:56:44.731Z,9.93
2019-01-03T12:59:15.663Z,14.80
2019-01-03T13:01:46.690Z,24.60
2019-01-03T13:04:17.642Z,11.47
2019-01-03T13:06:48.604Z,8.73
2019-01-03T13:09:19.842Z,12.73
2019-01-03T13:11:50.777Z,9.70
2019-01-03T13:14:21.721Z,12.33
2019-01-03T13:16:52.647Z,16.33
2019-01-03T13:19:23.565Z,9.07
2019-01-03T13:21:54.515Z,13.17
2019-01-03T13:24:25.438Z,8.00
2019-01-03T13:26:56.421Z,10.27
2019-01-03T13:29:27.396Z,11.30
2019-01-03T13:31:58.321Z,11.73
2019-01-03T13:34:29.319Z,15.53
2019-01-03T13:37:00.318Z,13.73
2019-01-03T13:39:31.361Z,11.50
2019-01-03T13:42:02.336Z,14.53
2019-01-03T13:44:33.282Z,8.70
2019-01-03T13:47:04.772Z,19.93
2019-01-03T13:49:35.699Z,15.87
2019-01-03T13:52:06.667Z,13.23
2019-01-03T13:54:37.601Z,14.83
2019-01-03T13:57:08.537Z,12.03
2019-01-03T13:59:39.448Z,12.23
2019-01-03T14:02:10.445Z,15.47
2019-01-03T14:04:42.334Z,12.57
2019-01-03T14:07:13.333Z,14.50
2019-01-03T14:09:44.283Z,22.07
2019-01-03T14:12:15.220Z,17.60
2019-01-03T14:14:46.198Z,19.23
2019-01-03T14:17:17.213Z,12.27
2019-01-03T14:19:48.123Z,9.87
2019-01-03T14:22:19.152Z,10.80
2019-01-03T14:24:50.132Z,10.23
2019-01-03T14:27:21.173Z,10.83
2019-01-03T14:29:52.159Z,17.00
2019-01-03T14:32:23.083Z,16.50
2019-01-03T14:34:54.074Z,12.07
2019-01-03T14:37:24.998Z,18.27
2019-01-03T14:39:55.930Z,20.47
2019-01-03T14:42:26.867Z,13.87
2019-01-03T14:44:57.802Z,15.83
2019-01-03T14:47:28.727Z,17.70
2019-01-03T14:49:59.694Z,31.50
2019-01-03T14:52:30.627Z,29.23
2019-01-03T14:55:01.561Z,25.87
2019-01-03T14:57:32.579Z,18.80
2019-01-03T15:00:03.657Z,20.07
2019-01-03T15:02:34.694Z,16.07
2019-01-03T15:05:05.644Z,22.03
2019-01-03T15:07:36.677Z,9.53
2019-01-03T15:10:08.355Z,12.27
2019-01-03T15:12:39.339Z,20.97
2019-01-03T15:15:10.253Z,18.07
2019-01-03T15:17:41.216Z,12.63
2019-01-03T15:20:12.691Z,11.97
2019-01-03T15:22:43.678Z,13.10
2019-01-03T15:25:14.675Z,12.43
2019-01-03T15:27:45.712Z,15.60
2019-01-03T15:30:16.649Z,23.40
2019-01-03T15:32:55.292Z,18.53
2019-01-03T15:35:26.246Z,19.97
2019-01-03T15:37:57.297Z,12.77
2019-01-03T15:40:28.237Z,9.27
2019-01-03T15:43:00.294Z,10.23
2019-01-03T15:45:31.329Z,16.13
2019-01-03T15:48:02.294Z,15.13
2019-01-03T15:50:34.380Z,13.00
2019-01-03T15:53:05.441Z,14.10
2019-01-03T15:55:36.497Z,13.57
2019-01-03T15:58:07.422Z,15.07
2019-01-03T16:00:38.408Z,18.30
2019-01-03T16:03:09.538Z,21.10
2019-01-03T16:05:40.633Z,16.10
2019-01-03T16:08:14.006Z,26.27
2019-01-03T16:10:45.118Z,28.60
2019-01-03T16:13:16.286Z,27.30
2019-01-03T16:15:47.281Z,17.40
2019-01-03T16:18:18.305Z,17.20
2019-01-03T16:20:49.287Z,14.10
2019-01-03T16:23:20.285Z,42.47
2019-01-03T16:25:51.300Z,23.07
2019-01-03T16:28:22.302Z,32.53
2019-01-03T16:30:53.214Z,16.97
2019-01-03T16:33:24.205Z,18.53
2019-01-03T16:35:55.129Z,19.50
2019-01-03T16:38:26.061Z,22.73
2019-01-03T16:40:57.007Z,20.63
2019-01-03T16:43:28.021Z,22.43
2019-01-03T16:45:59.032Z,19.23
2019-01-03T16:48:29.988Z,20.33
2019-01-03T16:51:00.911Z,30.20
2019-01-03T16:53:31.944Z,25.80
2019-01-03T16:56:02.905Z,36.37
2019-01-03T16:58:33.893Z,22.90
2019-01-03T17:01:04.848Z,21.10
2019-01-03T17:03:35.836Z,15.10
2019-01-03T17:06:12.456Z,18.33
2019-01-03T17:08:43.411Z,19.70
2019-01-03T17:11:14.401Z,18.80
2019-01-03T17:13:45.466Z,21.43
2019-01-03T17:16:16.526Z,15.33
2019-01-03T17:18:47.693Z,17.60
2019-01-03T17:21:18.724Z,30.37
2019-01-03T17:23:50.093Z,21.80
2019-01-03T17:26:21.094Z,24.77
2019-01-03T17:28:52.074Z,28.90
2019-01-03T17:31:23.151Z,18.30
2019-01-03T17:33:54.142Z,20.07
2019-01-03T17:36:25.170Z,18.33
2019-01-03T17:38:56.171Z,22.40
2019-01-03T17:41:27.111Z,23.13
2019-01-03T17:43:58.106Z,13.27
2019-01-03T17:46:29.302Z,18.50
2019-01-03T17:49:00.271Z,24.57
2019-01-03T17:51:31.373Z,18.13
2019-01-03T17:54:02.311Z,18.87
2019-01-03T17:56:33.281Z,19.77
2019-01-03T17:59:04.200Z,17.90
2019-01-03T18:01:35.127Z,16.77
2019-01-03T18:04:06.130Z,17.20
2019-01-03T18:06:37.049Z,17.47
2019-01-03T18:09:16.903Z,19.10
2019-01-03T18:11:48.995Z,18.07
2019-01-03T18:14:21.317Z,18.73
2019-01-03T18:16:52.293Z,15.63
2019-01-03T18:19:25.573Z,14.07
2019-01-03T18:21:56.976Z,19.67
2019-01-03T18:24:28.011Z,21.30
2019-01-03T18:26:58.927Z,29.40
2019-01-03T18:29:29.947Z,17.90
2019-01-03T18:32:01.047Z,21.17
2019-01-03T18:34:33.117Z,23.03
2019-01-03T18:37:04.109Z,21.10
2019-01-03T18:39:35.127Z,22.17
2019-01-03T18:42:06.275Z,21.17
2019-01-03T18:44:37.230Z,28.27
2019-01-03T18:47:08.235Z,23.10
2019-01-03T18:49:39.330Z,27.67
2019-01-03T18:52:10.419Z,31.30
2019-01-03T18:54:41.363Z,25.17
2019-01-03T18:57:12.348Z,19.50
2019-01-03T18:59:43.286Z,16.30
2019-01-03T19:02:14.330Z,20.03
2019-01-03T19:04:45.298Z,22.70
2019-01-03T19:07:16.478Z,39.77
2019-01-03T19:09:47.522Z,37.63
2019-01-03T19:12:18.759Z,38.73
2019-01-03T19:14:53.158Z,50.13
2019-01-03T19:17:24.229Z,63.60
2019-01-03T19:19:55.271Z,41.77
2019-01-03T19:22:26.479Z,44.13
2019-01-03T19:24:57.996Z,29.93
2019-01-03T19:27:28.993Z,30.60
2019-01-03T19:30:01.760Z,38.47
2019-01-03T19:32:32.808Z,40.33
2019-01-03T19:35:03.868Z,54.20
2019-01-03T19:37:35.238Z,30.50
2019-01-03T19:40:09.037Z,37.30
2019-01-03T19:42:40.210Z,21.33
2019-01-03T19:45:12.021Z,29.20
2019-01-03T19:47:43.485Z,28.23
2019-01-03T19:50:17.331Z,23.17
2019-01-03T19:52:48.303Z,23.00
2019-01-03T19:55:19.259Z,21.17
2019-01-03T19:57:50.226Z,20.20
2019-01-03T20:00:21.226Z,18.17
2019-01-03T20:02:52.172Z,21.10
2019-01-03T20:05:23.117Z,22.53
2019-01-03T20:07:54.116Z,21.67
2019-01-03T20:10:25.168Z,15.27
2019-01-03T20:12:56.256Z,17.93
2019-01-03T20:15:27.257Z,16.60
2019-01-03T20:17:58.542Z,17.97
2019-01-03T20:20:29.507Z,19.37
2019-01-03T20:23:00.535Z,18.30
2019-01-03T20:25:31.521Z,16.03
2019-01-03T20:28:02.557Z,17.73
2019-01-03T20:30:33.594Z,16.87
2019-01-03T20:33:04.636Z,18.30
2019-01-03T20:35:35.660Z,15.20
2019-01-03T20:38:06.726Z,18.87
2019-01-03T20:40:37.738Z,19.17
2019-01-03T20:43:08.711Z,20.03
2019-01-03T20:45:39.837Z,18.93
2019-01-03T20:48:10.785Z,22.63
2019-01-03T20:50:41.754Z,16.87
2019-01-03T20:53:12.744Z,16.47
2019-01-03T20:55:43.686Z,17.07
2019-01-03T20:58:14.770Z,15.57
2019-01-03T21:00:45.772Z,20.57
2019-01-03T21:03:18.057Z,20.27
2019-01-03T21:05:49.021Z,17.80
2019-01-03T21:08:19.967Z,16.33
2019-01-03T21:10:51.036Z,15.63
2019-01-03T21:13:22.036Z,14.07
2019-01-03T21:15:53.105Z,22.40
2019-01-03T21:18:24.049Z,22.87
2019-01-03T21:20:54.976Z,26.53
2019-01-03T21:23:25.937Z,25.53
2019-01-03T21:25:56.884Z,26.70
2019-01-03T21:28:27.841Z,32.17
2019-01-03T21:30:58.754Z,28.27
2019-01-03T21:33:29.755Z,31.87
2019-01-03T21:36:00.754Z,30.73
2019-01-03T21:38:31.875Z,22.73
2019-01-03T21:41:02.858Z,16.83
2019-01-03T21:43:33.897Z,17.93
2019-01-03T21:46:04.918Z,14.53
2019-01-03T21:48:35.855Z,14.40
2019-01-03T21:51:06.897Z,15.60
2019-01-03T21:53:37.880Z,19.90
2019-01-03T21:56:08.955Z,18.13
2019-01-03T21:58:39.950Z,13.63
2019-01-03T22:01:10.896Z,14.23
2019-01-03T22:03:41.916Z,16.27
2019-01-03T22:06:12.854Z,12.83
2019-01-03T22:08:44.972Z,12.30
2019-01-03T22:11:15.970Z,14.10
2019-01-03T22:13:47.002Z,15.50
2019-01-03T22:16:18.013Z,23.87
2019-01-03T22:18:49.006Z,15.43
2019-01-03T22:21:19.942Z,12.57
2019-01-03T22:23:50.940Z,17.03
2019-01-03T22:26:21.876Z,18.57
2019-01-03T22:28:52.914Z,15.50
2019-01-03T22:31:23.882Z,18.03
2019-01-03T22:33:55.230Z,18.17
2019-01-03T22:36:26.806Z,14.17
2019-01-03T22:38:57.857Z,15.87
2019-01-03T22:41:28.861Z,17.77
2019-01-03T22:44:00.854Z,18.27
2019-01-03T22:46:31.873Z,18.87
2019-01-03T22:49:02.815Z,15.17
2019-01-03T22:51:33.792Z,14.03
2019-01-03T22:54:04.737Z,16.40
2019-01-03T22:56:35.711Z,16.87
2019-01-03T22:59:06.665Z,14.13
2019-01-03T23:01:37.632Z,21.30
2019-01-03T23:04:08.709Z,14.40
2019-01-03T23:06:39.791Z,16.93
2019-01-03T23:09:10.766Z,18.50
2019-01-03T23:11:41.777Z,12.37
2019-01-03T23:14:12.733Z,14.10
2019-01-03T23:16:43.740Z,14.00
2019-01-03T23:19:14.724Z,13.97
2019-01-03T23:21:45.650Z,11.17
2019-01-03T23:24:16.604Z,8.93
2019-01-03T23:26:47.556Z,11.23
2019-01-03T23:29:18.534Z,10.47
2019-01-03T23:31:49.457Z,9.03
2019-01-03T23:34:20.417Z,11.63
2019-01-03T23:36:55.044Z,11.63
2019-01-03T23:39:25.983Z,13.77
2019-01-03T23:41:57.009Z,10.87
2019-01-03T23:44:33.690Z,9.67
2019-01-03T23:47:04.982Z,11.03
2019-01-03T23:49:36.073Z,15.77
2019-01-03T23:52:07.370Z,14.47
2019-01-03T23:54:45.353Z,16.53
2019-01-03T23:57:18.103Z,11.87
2019-01-03T23:59:49.586Z,9.90
